Time;durP1;ratioP1;P1;durP2;ratioP2;P2;SDS_P1;SDS_P2;PMS_P1;PMS_P2;Temp;Humidity;BMP_temperature;BMP_pressure;BME280_temperature;BME280_humidity;BME280_pressure;Samples;Min_cycle;Max_cycle;Signal;HPM_P1;HPM_P2
2024/01/11 00:02:53;;;;;;;181.90;75.00;;;;;;;-9.87;75.12;101701.17;129778;1259;114800;-62
2024/01/11 00:05:55;;;;;;;179.30;72.30;;;;;;;-9.86;75.23;101692.59;129788;1270;115056;-61
2024/01/11 00:08:57;;;;;;;188.70;72.70;;;;;;;-9.86;75.22;101682.95;129757;1257;114836;-61
2024/01/11 00:11:59;;;;;;;193.40;78.70;;;;;;;-9.85;75.29;101680.06;129700;1257;128340;-61
2024/01/11 00:15:01;;;;;;;190.80;75.30;;;;;;;-9.84;75.33;101673.36;129777;1259;114920;-61
2024/01/11 00:18:04;;;;;;;177.40;71.90;;;;;;;-9.83;75.20;101663.41;129721;1262;114764;-62
2024/01/11 00:21:06;;;;;;;186.40;76.60;;;;;;;-9.81;75.22;101656.75;129595;1261;115013;-62
2024/01/11 00:24:08;;;;;;;185.20;74.70;;;;;;;-9.79;75.36;101658.28;129569;1259;114870;-61
2024/01/11 00:27:10;;;;;;;183.90;74.90;;;;;;;-9.78;75.44;101656.61;129719;1262;114718;-61
2024/01/11 00:30:13;;;;;;;185.30;72.60;;;;;;;-9.76;75.58;101663.44;129510;1259;115802;-62
2024/01/11 00:33:15;;;;;;;185.00;72.90;;;;;;;-9.75;75.46;101658.84;129697;1272;114822;-62
2024/01/11 00:36:19;;;;;;;177.60;72.50;;;;;;;-9.74;75.63;101654.22;129933;1259;116318;-61
2024/01/11 00:39:21;;;;;;;184.70;75.40;;;;;;;-9.73;75.60;101650.29;129933;1259;115060;-62
2024/01/11 00:42:24;;;;;;;181.10;72.70;;;;;;;-9.72;75.57;101645.99;129907;1259;114768;-61
2024/01/11 00:45:26;;;;;;;163.80;68.20;;;;;;;-9.73;75.66;101651.00;129810;1259;115094;-61
2024/01/11 00:48:28;;;;;;;173.20;68.40;;;;;;;-9.73;75.48;101651.51;129632;1257;114970;-61
2024/01/11 00:51:30;;;;;;;175.00;67.90;;;;;;;-9.73;75.61;101646.48;129778;1259;114840;-61
2024/01/11 00:54:32;;;;;;;168.40;66.60;;;;;;;-9.74;75.63;101651.92;129826;1271;114641;-61
2024/01/11 00:57:35;;;;;;;172.30;68.60;;;;;;;-9.76;75.43;101658.78;129963;1275;114883;-61
2024/01/11 01:00:37;;;;;;;166.80;70.50;;;;;;;-9.77;75.62;101649.55;129615;1272;114779;-61
2024/01/11 01:03:39;;;;;;;173.20;68.90;;;;;;;-9.77;75.75;101641.77;129888;1259;114721;-61
2024/01/11 01:06:42;;;;;;;184.50;72.00;;;;;;;-9.78;75.55;101627.02;130045;1262;114729;-61
2024/01/11 01:09:44;;;;;;;183.70;74.00;;;;;;;-9.79;75.55;101621.46;129888;1259;114742;-61
2024/01/11 01:12:47;;;;;;;187.40;76.00;;;;;;;-9.79;75.61;101619.72;129842;1259;114742;-62
2024/01/11 01:15:49;;;;;;;188.70;72.00;;;;;;;-9.79;75.58;101626.10;129847;1259;114882;-61
2024/01/11 01:18:51;;;;;;;187.10;77.90;;;;;;;-9.80;75.59;101628.29;129870;1272;128335;-60
2024/01/11 01:21:53;;;;;;;183.80;70.90;;;;;;;-9.82;75.54;101619.39;129646;1278;114720;-60
2024/01/11 01:24:56;;;;;;;175.00;70.40;;;;;;;-9.82;75.57;101619.52;129856;1256;114767;-61
2024/01/11 01:28:00;;;;;;;168.30;72.30;;;;;;;-9.84;75.50;101620.49;129702;1275;114714;-60
2024/01/11 01:31:02;;;;;;;179.70;69.40;;;;;;;-9.84;75.54;101617.88;129420;1257;115388;-61
2024/01/11 01:34:04;;;;;;;181.40;70.90;;;;;;;-9.86;75.47;101604.16;129722;1259;114792;-61
2024/01/11 01:37:07;;;;;;;169.60;68.50;;;;;;;-9.86;75.72;101598.43;129722;1278;114807;-60
2024/01/11 01:40:11;;;;;;;164.20;71.60;;;;;;;-9.85;75.80;101603.47;129445;1278;128501;-61
2024/01/11 01:43:13;;;;;;;164.00;68.50;;;;;;;-9.85;75.65;101608.17;129747;1260;115331;-61
2024/01/11 01:46:20;;;;;;;181.80;70.50;;;;;;;-9.84;75.82;101605.08;129656;1278;115195;-61
2024/01/11 01:49:22;;;;;;;172.40;68.20;;;;;;;-9.84;75.73;101614.77;129735;1272;114799;-61
2024/01/11 01:52:25;;;;;;;162.30;68.90;;;;;;;-9.85;75.74;101629.60;129740;1269;114855;-60
2024/01/11 01:55:27;;;;;;;172.70;67.10;;;;;;;-9.86;75.99;101638.17;129754;1269;114678;-61
2024/01/11 01:58:30;;;;;;;187.00;70.30;;;;;;;-9.86;75.99;101643.00;129764;1278;114833;-60
2024/01/11 02:01:32;;;;;;;194.80;72.70;;;;;;;-9.87;75.95;101645.20;129615;1273;114667;-60
2024/01/11 02:04:35;;;;;;;175.20;71.80;;;;;;;-9.90;75.97;101643.16;129663;1257;114966;-60
2024/01/11 02:07:37;;;;;;;191.30;73.90;;;;;;;-9.88;76.09;101638.54;129971;1259;114865;-60
2024/01/11 02:10:40;;;;;;;172.20;75.30;;;;;;;-9.88;76.06;101635.27;129842;1278;114833;-60
2024/01/11 02:13:42;;;;;;;176.40;71.30;;;;;;;-9.88;75.91;101625.79;129760;1256;114939;-60
2024/01/11 02:16:45;;;;;;;178.30;73.30;;;;;;;-9.86;76.21;101620.73;129950;1259;114770;-61
2024/01/11 02:19:47;;;;;;;181.20;73.50;;;;;;;-9.86;76.05;101620.20;129851;1259;114772;-60
2024/01/11 02:22:53;;;;;;;182.90;70.20;;;;;;;-9.86;76.17;101619.66;129879;1278;114732;-61
2024/01/11 02:25:55;;;;;;;170.10;65.90;;;;;;;-9.86;75.98;101616.89;129783;1257;114830;-60
2024/01/11 02:28:57;;;;;;;168.10;64.10;;;;;;;-9.85;76.06;101619.03;129888;1260;115048;-60
2024/01/11 02:32:01;;;;;;;161.30;66.50;;;;;;;-9.85;76.04;101614.55;129970;1272;114777;-60
2024/01/11 02:35:04;;;;;;;187.30;66.40;;;;;;;-9.85;76.09;101609.86;129521;1276;114644;-60
2024/01/11 02:38:06;;;;;;;172.90;67.70;;;;;;;-9.85;75.99;101600.89;129758;1278;114839;-60
2024/01/11 02:41:09;;;;;;;156.10;66.20;;;;;;;-9.84;76.08;101581.75;129840;1259;115193;-61
2024/01/11 02:44:11;;;;;;;165.70;66.20;;;;;;;-9.84;76.03;101566.54;129795;1259;114732;-61
2024/01/11 02:47:13;;;;;;;169.00;69.00;;;;;;;-9.82;76.22;101555.60;129618;1258;114819;-60
2024/01/11 02:50:15;;;;;;;173.00;72.90;;;;;;;-9.80;76.42;101555.19;129881;1259;114723;-61
2024/01/11 02:53:17;;;;;;;178.50;69.00;;;;;;;-9.79;76.26;101546.78;129868;1269;114778;-60
2024/01/11 02:56:20;;;;;;;181.50;74.50;;;;;;;-9.77;76.36;101551.21;129707;1259;114855;-60
2024/01/11 02:59:23;;;;;;;176.20;69.30;;;;;;;-9.76;76.45;101558.88;129712;1259;114704;-61
2024/01/11 03:02:25;;;;;;;176.10;67.70;;;;;;;-9.75;76.46;101552.34;129699;1278;115297;-60
2024/01/11 03:05:28;;;;;;;169.80;67.00;;;;;;;-9.73;76.43;101547.23;129666;1262;114731;-61
2024/01/11 03:08:31;;;;;;;174.50;66.70;;;;;;;-9.74;76.43;101537.36;129545;1265;114769;-60
2024/01/11 03:11:33;;;;;;;170.10;65.10;;;;;;;-9.71;76.36;101540.59;129763;1260;114808;-60
2024/01/11 03:14:35;;;;;;;174.20;67.40;;;;;;;-9.71;76.36;101539.94;129710;1256;114707;-61
2024/01/11 03:17:37;;;;;;;162.60;65.40;;;;;;;-9.70;76.34;101535.13;129895;1259;115136;-60
2024/01/11 03:20:39;;;;;;;161.00;64.60;;;;;;;-9.71;76.37;101542.88;129756;1259;128356;-61
2024/01/11 03:23:42;;;;;;;167.30;67.00;;;;;;;-9.70;76.50;101557.09;129960;1259;115215;-60
2024/01/11 03:26:44;;;;;;;167.90;66.50;;;;;;;-9.70;76.14;101561.09;129935;1270;114744;-60
2024/01/11 03:29:46;;;;;;;169.90;70.80;;;;;;;-9.71;76.08;101566.22;129737;1259;114712;-60
2024/01/11 03:32:48;;;;;;;165.40;63.80;;;;;;;-9.71;76.14;101562.55;129749;1259;114786;-60
2024/01/11 03:35:50;;;;;;;160.10;61.90;;;;;;;-9.71;76.25;101556.36;129802;1278;114710;-60
2024/01/11 03:38:52;;;;;;;175.20;66.70;;;;;;;-9.71;76.27;101555.48;129908;1259;114732;-60
2024/01/11 03:41:55;;;;;;;161.50;63.40;;;;;;;-9.71;76.31;101554.77;130026;1269;114799;-60
2024/01/11 03:44:56;;;;;;;167.90;66.80;;;;;;;-9.72;76.17;101557.67;130000;1278;114786;-61
2024/01/11 03:47:59;;;;;;;161.20;66.00;;;;;;;-9.72;76.25;101571.00;129873;1260;114722;-61
2024/01/11 03:51:01;;;;;;;159.00;65.30;;;;;;;-9.72;76.21;101570.27;129975;1260;114684;-60
2024/01/11 03:54:04;;;;;;;178.60;68.80;;;;;;;-9.72;76.28;101577.00;129897;1258;114774;-60
2024/01/11 03:57:06;;;;;;;179.90;67.80;;;;;;;-9.75;76.02;101578.45;129886;1257;114769;-61
2024/01/11 04:00:09;;;;;;;169.00;68.40;;;;;;;-9.77;76.19;101574.05;129927;1268;114822;-61
2024/01/11 04:03:11;;;;;;;171.90;66.90;;;;;;;-9.77;76.12;101576.09;129910;1257;114811;-61
2024/01/11 04:06:24;;;;;;;154.30;63.40;;;;;;;-9.78;76.37;101563.95;129752;1270;114818;-61
2024/01/11 04:09:26;;;;;;;152.00;63.80;;;;;;;-9.77;76.37;101554.16;129906;1264;114734;-60
2024/01/11 04:12:28;;;;;;;163.20;70.50;;;;;;;-9.77;76.19;101544.31;129866;1259;114715;-61
2024/01/11 04:15:30;;;;;;;168.30;67.10;;;;;;;-9.77;76.24;101542.92;129914;1258;115093;-61
2024/01/11 04:18:32;;;;;;;152.30;62.50;;;;;;;-9.77;76.24;101551.02;130073;1259;115156;-61
2024/01/11 04:21:37;;;;;;;158.30;61.20;;;;;;;-9.77;76.22;101558.14;129868;1261;115371;-61
2024/01/11 04:24:42;;;;;;;163.70;64.60;;;;;;;-9.76;76.28;101545.58;129911;1267;115084;-61
2024/01/11 04:27:44;;;;;;;149.50;60.10;;;;;;;-9.75;76.25;101543.85;129894;1264;114800;-60
2024/01/11 04:30:46;;;;;;;156.60;60.90;;;;;;;-9.75;76.18;101550.45;129883;1268;114766;-61
2024/01/11 04:33:48;;;;;;;151.00;59.80;;;;;;;-9.73;76.38;101543.29;129984;1259;114738;-61
2024/01/11 04:36:51;;;;;;;166.10;61.90;;;;;;;-9.72;76.19;101546.29;129715;1263;115098;-61
2024/01/11 04:39:53;;;;;;;155.40;58.30;;;;;;;-9.71;76.37;101533.69;130027;1270;114786;-60
2024/01/11 04:42:55;;;;;;;141.10;57.80;;;;;;;-9.69;76.36;101527.09;129796;1277;114808;-61
2024/01/11 04:45:58;;;;;;;149.50;58.60;;;;;;;-9.67;76.60;101525.11;129958;1268;114792;-61
2024/01/11 04:49:00;;;;;;;154.30;59.40;;;;;;;-9.65;76.47;101524.52;129692;1263;114998;-61
2024/01/11 04:52:02;;;;;;;145.50;58.60;;;;;;;-9.62;76.62;101527.28;129972;1259;114814;-61
2024/01/11 04:55:05;;;;;;;140.10;56.10;;;;;;;-9.56;76.77;101521.31;130107;1268;114751;-60
2024/01/11 04:58:07;;;;;;;154.30;58.00;;;;;;;-9.49;76.95;101505.13;129862;1262;114780;-60
2024/01/11 05:01:14;;;;;;;142.70;53.80;;;;;;;-9.38;77.39;101498.73;130003;1260;114785;-60
2024/01/11 05:04:15;;;;;;;;;;;;;;;-9.27;77.63;101484.63;129738;1260;127702;-61
2024/01/11 05:07:18;;;;;;;122.80;50.70;;;;;;;-9.15;77.78;101462.86;129895;1265;114734;-61
2024/01/11 05:10:20;;;;;;;125.70;51.80;;;;;;;-9.04;77.73;101450.93;129959;1270;114775;-61
2024/01/11 05:13:22;;;;;;;124.90;52.50;;;;;;;-8.92;78.07;101458.59;129751;1263;114889;-61
2024/01/11 05:16:26;;;;;;;124.50;48.40;;;;;;;-8.82;77.99;101468.77;129995;1259;114727;-61
2024/01/11 05:19:28;;;;;;;125.10;51.10;;;;;;;-8.73;77.99;101476.64;130007;1260;114788;-61
2024/01/11 05:22:30;;;;;;;130.60;48.90;;;;;;;-8.63;78.21;101478.31;129924;1272;114734;-60
2024/01/11 05:25:35;;;;;;;129.20;50.50;;;;;;;-8.52;78.54;101466.20;129650;1277;127900;-61
2024/01/11 05:28:38;;;;;;;140.80;52.80;;;;;;;-8.40;78.54;101450.45;129567;1264;114995;-61
2024/01/11 05:31:40;;;;;;;122.50;52.20;;;;;;;-8.27;78.20;101447.21;130020;1257;114768;-60
2024/01/11 05:34:43;;;;;;;122.10;49.60;;;;;;;-8.14;78.79;101434.98;129867;1267;114719;-61
2024/01/11 05:37:45;;;;;;;126.40;49.60;;;;;;;-7.99;78.87;101426.10;129869;1277;114880;-60
2024/01/11 05:40:47;;;;;;;119.60;48.40;;;;;;;-7.84;78.36;101420.16;129482;1263;115337;-61
2024/01/11 05:43:49;;;;;;;113.40;45.40;;;;;;;-7.70;78.36;101424.39;129559;1264;114826;-61
2024/01/11 05:46:51;;;;;;;117.60;45.90;;;;;;;-7.57;78.82;101442.13;129871;1279;114842;-61
2024/01/11 05:49:54;;;;;;;88.70;37.50;;;;;;;-7.44;78.57;101456.55;129749;1260;114732;-61
2024/01/11 05:52:56;;;;;;;111.00;45.40;;;;;;;-7.35;78.46;101458.87;129649;1263;114837;-60
2024/01/11 05:55:59;;;;;;;116.70;50.20;;;;;;;-7.26;78.58;101456.63;129533;1270;114892;-60
2024/01/11 05:59:01;;;;;;;126.70;51.20;;;;;;;-7.21;78.92;101445.38;129680;1279;114748;-61
2024/01/11 06:02:04;;;;;;;134.40;53.10;;;;;;;-7.14;78.51;101430.71;129550;1267;114752;-61
2024/01/11 06:05:08;;;;;;;120.10;47.70;;;;;;;-7.08;78.33;101431.48;129545;1269;114803;-61
2024/01/11 06:08:10;;;;;;;129.10;50.90;;;;;;;-7.00;78.32;101420.51;129702;1271;115143;-61
2024/01/11 06:11:13;;;;;;;132.80;51.40;;;;;;;-6.93;78.51;101409.52;129691;1260;114758;-61
2024/01/11 06:14:15;;;;;;;116.50;46.40;;;;;;;-6.84;78.59;101401.19;129785;1278;114822;-61
2024/01/11 06:17:17;;;;;;;126.80;49.20;;;;;;;-6.77;78.54;101380.77;129868;1261;114802;-61
2024/01/11 06:20:19;;;;;;;121.00;47.70;;;;;;;-6.75;78.24;101370.98;129789;1270;114782;-61
2024/01/11 06:23:24;;;;;;;118.00;47.90;;;;;;;-6.72;78.23;101373.34;129754;1260;114864;-61
2024/01/11 06:26:26;;;;;;;113.10;46.00;;;;;;;-6.71;78.01;101380.48;129420;1273;114887;-61
2024/01/11 06:29:28;;;;;;;109.50;44.40;;;;;;;-6.70;78.12;101399.10;129359;1263;114868;-61
2024/01/11 06:32:31;;;;;;;113.30;44.60;;;;;;;-6.69;78.07;101403.12;129500;1264;115223;-61
2024/01/11 06:35:33;;;;;;;107.50;41.60;;;;;;;-6.69;77.92;101413.04;129491;1264;114708;-61
2024/01/11 06:38:35;;;;;;;103.10;45.20;;;;;;;-6.69;77.95;101413.40;129644;1273;114898;-61
2024/01/11 06:41:38;;;;;;;114.20;46.20;;;;;;;-6.67;77.71;101414.17;129609;1267;114875;-61
2024/01/11 06:44:40;;;;;;;102.80;43.90;;;;;;;-6.64;77.94;101419.31;129278;1281;128520;-61
2024/01/11 06:47:44;;;;;;;103.30;42.90;;;;;;;-6.61;77.87;101416.15;129524;1260;114796;-61
2024/01/11 06:50:46;;;;;;;101.30;41.40;;;;;;;-6.57;78.07;101410.21;129740;1265;115139;-61
2024/01/11 06:53:49;;;;;;;103.70;42.00;;;;;;;-6.52;78.16;101402.92;129898;1271;115032;-61
2024/01/11 06:56:51;;;;;;;101.20;37.60;;;;;;;-6.48;78.18;101390.38;129928;1261;114754;-61
2024/01/11 06:59:54;;;;;;;87.10;37.20;;;;;;;-6.44;77.94;101387.92;129896;1268;114734;-61
2024/01/11 07:02:56;;;;;;;82.10;35.80;;;;;;;-6.39;78.17;101382.90;129533;1263;128631;-61
2024/01/11 07:05:59;;;;;;;86.60;34.60;;;;;;;-6.34;77.89;101377.19;129965;1259;114752;-61
2024/01/11 07:09:03;;;;;;;85.60;34.60;;;;;;;-6.28;78.12;101381.22;130120;1261;115222;-61
2024/01/11 07:12:06;;;;;;;89.70;34.40;;;;;;;-6.20;78.15;101371.74;129997;1267;116353;-61
2024/01/11 07:15:09;;;;;;;79.80;33.40;;;;;;;-6.14;77.98;101370.23;129896;1272;114924;-61
2024/01/11 07:18:11;;;;;;;74.20;31.80;;;;;;;-6.07;77.62;101357.62;129797;1263;114786;-62
2024/01/11 07:21:23;;;;;;;73.50;31.30;;;;;;;-6.01;77.64;101357.30;129883;1260;114807;-60
2024/01/11 07:24:25;;;;;;;75.90;32.70;;;;;;;-5.93;77.73;101348.17;129581;1258;114881;-60
2024/01/11 07:27:27;;;;;;;75.90;32.40;;;;;;;-5.86;77.45;101331.02;130014;1256;115258;-61
2024/01/11 07:30:29;;;;;;;68.80;29.30;;;;;;;-5.80;77.26;101328.27;129925;1259;114902;-61
2024/01/11 07:33:31;;;;;;;69.40;28.60;;;;;;;-5.74;77.45;101312.95;129918;1278;114819;-61
2024/01/11 07:36:34;;;;;;;82.20;31.90;;;;;;;-5.69;77.47;101306.17;129828;1259;114739;-61
2024/01/11 07:39:36;;;;;;;69.30;29.30;;;;;;;-5.66;77.38;101306.81;129892;1269;114801;-62
2024/01/11 07:42:39;;;;;;;64.80;27.80;;;;;;;-5.63;77.14;101321.34;129963;1254;114769;-61
2024/01/11 07:45:43;;;;;;;73.20;28.60;;;;;;;-5.62;76.84;101326.23;129994;1270;114842;-62
2024/01/11 07:48:45;;;;;;;61.60;27.10;;;;;;;-5.59;76.81;101318.83;130062;1254;115344;-62
2024/01/11 07:51:48;;;;;;;62.20;25.90;;;;;;;-5.57;76.77;101321.89;129729;1270;114888;-61
2024/01/11 07:54:50;;;;;;;69.40;33.00;;;;;;;-5.54;76.55;101328.06;129849;1258;114801;-62
2024/01/11 07:57:52;;;;;;;72.40;28.40;;;;;;;-5.48;76.80;101327.56;129731;1260;114751;-65
2024/01/11 08:00:54;;;;;;;66.00;28.00;;;;;;;-5.41;76.29;101328.83;130233;1254;114705;-64
2024/01/11 08:03:56;;;;;;;67.90;27.80;;;;;;;-5.29;77.04;101320.50;130129;1270;114880;-64
2024/01/11 08:07:01;;;;;;;63.90;25.80;;;;;;;-5.15;77.21;101319.02;130104;1260;114715;-65
2024/01/11 08:10:04;;;;;;;56.60;25.00;;;;;;;-5.03;76.95;101310.70;130238;1257;114708;-64
2024/01/11 08:13:06;;;;;;;65.20;29.70;;;;;;;-4.90;76.17;101300.79;130238;1254;115392;-65
2024/01/11 08:16:09;;;;;;;59.30;23.60;;;;;;;-4.76;76.46;101301.58;130264;1254;114779;-66
2024/01/11 08:19:13;;;;;;;61.10;25.60;;;;;;;-4.58;76.33;101302.27;129866;1254;127846;-64
2024/01/11 08:22:15;;;;;;;60.50;25.30;;;;;;;-4.40;76.53;101307.45;130298;1261;115001;-63
2024/01/11 08:25:17;;;;;;;62.70;27.90;;;;;;;-4.24;76.54;101315.57;130125;1260;114708;-64
2024/01/11 08:28:20;;;;;;;63.90;26.50;;;;;;;-4.07;76.54;101318.98;130231;1254;115354;-64
2024/01/11 08:31:22;;;;;;;55.90;23.30;;;;;;;-3.92;76.28;101305.25;129893;1264;114701;-63
2024/01/11 08:34:26;;;;;;;48.70;23.40;;;;;;;-3.80;76.25;101304.33;130226;1260;114918;-65
2024/01/11 08:37:28;;;;;;;54.70;25.90;;;;;;;-3.69;75.65;101312.81;130187;1277;115151;-65
2024/01/11 08:40:30;;;;;;;58.10;27.70;;;;;;;-3.60;75.85;101308.49;130190;1254;114727;-63
2024/01/11 08:43:32;;;;;;;63.00;26.20;;;;;;;-3.52;75.55;101303.63;130355;1257;115279;-65
2024/01/11 08:46:34;;;;;;;58.50;28.10;;;;;;;-3.45;75.58;101315.33;129695;1263;115026;-64
2024/01/11 08:49:39;;;;;;;78.60;34.00;;;;;;;-3.36;75.52;101313.79;130250;1260;114772;-64
2024/01/11 08:52:41;;;;;;;61.20;27.80;;;;;;;-3.27;75.14;101318.52;129868;1273;114845;-64
2024/01/11 08:55:44;;;;;;;67.20;26.60;;;;;;;-3.18;75.30;101313.85;130138;1267;114727;-65
2024/01/11 08:58:46;;;;;;;59.10;26.70;;;;;;;-3.12;74.98;101319.23;130112;1260;114825;-63
2024/01/11 09:01:49;;;;;;;53.30;25.30;;;;;;;-3.05;74.76;101323.42;130149;1260;114690;-64
2024/01/11 09:04:51;;;;;;;60.70;27.30;;;;;;;-2.98;74.89;101327.24;129808;1267;114752;-64
2024/01/11 09:07:53;;;;;;;55.60;25.90;;;;;;;-2.89;75.18;101326.91;130243;1254;115397;-64
2024/01/11 09:10:56;;;;;;;83.10;34.60;;;;;;;-2.78;74.88;101320.16;130470;1257;115148;-63
2024/01/11 09:13:57;;;;;;;50.10;23.20;;;;;;;-2.67;74.57;101331.77;130194;1260;114866;-64
2024/01/11 09:16:59;;;;;;;54.40;24.60;;;;;;;-2.56;74.03;101336.90;130332;1254;114737;-65
2024/01/11 09:20:01;;;;;;;60.40;28.30;;;;;;;-2.43;73.96;101334.89;130282;1260;114817;-64
2024/01/11 09:23:03;;;;;;;52.30;24.30;;;;;;;-2.28;74.10;101331.34;130275;1259;114869;-63
2024/01/11 09:26:08;;;;;;;52.50;23.00;;;;;;;-2.14;74.19;101332.83;129947;1262;114737;-65
2024/01/11 09:29:10;;;;;;;51.40;24.20;;;;;;;-2.01;74.12;101331.15;130265;1260;114722;-63
2024/01/11 09:32:12;;;;;;;51.70;23.30;;;;;;;-1.88;73.86;101329.12;130258;1260;114734;-64
2024/01/11 09:35:14;;;;;;;53.20;26.90;;;;;;;-1.73;73.82;101325.18;130003;1260;114715;-63
2024/01/11 09:38:16;;;;;;;60.50;27.10;;;;;;;-1.59;73.45;101316.84;129793;1254;114778;-63
2024/01/11 09:41:18;;;;;;;62.90;27.70;;;;;;;-1.47;73.04;101311.08;129909;1254;114810;-64
2024/01/11 09:44:20;;;;;;;55.40;25.20;;;;;;;-1.36;73.06;101298.63;130022;1271;114799;-64
2024/01/11 09:47:23;;;;;;;55.40;26.40;;;;;;;-1.27;72.80;101293.52;129912;1267;115212;-63
2024/01/11 09:50:27;;;;;;;51.00;25.40;;;;;;;-1.15;72.41;101291.23;129968;1254;114757;-63
2024/01/11 09:53:32;;;;;;;48.20;23.10;;;;;;;-1.06;72.40;101294.51;129710;1254;114826;-63
2024/01/11 09:56:35;;;;;;;50.80;22.30;;;;;;;-0.95;72.34;101301.50;129481;1260;127393;-64
2024/01/11 09:59:37;;;;;;;49.90;23.30;;;;;;;-0.83;71.99;101298.50;129541;1277;114766;-64
2024/01/11 10:02:39;;;;;;;51.10;23.00;;;;;;;-0.73;71.82;101277.07;129962;1259;114728;-65
2024/01/11 10:05:42;;;;;;;48.90;24.50;;;;;;;-0.65;71.50;101270.86;130006;1254;114858;-64
2024/01/11 10:08:44;;;;;;;53.40;25.30;;;;;;;-0.58;71.12;101269.01;129423;1266;115286;-64
2024/01/11 10:11:48;;;;;;;45.50;22.10;;;;;;;-0.53;70.80;101262.74;129936;1259;114744;-65
2024/01/11 10:14:54;;;;;;;50.30;24.80;;;;;;;-0.49;70.80;101257.19;129869;1260;114786;-65
2024/01/11 10:17:56;;;;;;;52.70;22.70;;;;;;;-0.45;70.34;101260.55;129500;1255;114705;-64
2024/01/11 10:20:58;;;;;;;55.40;25.70;;;;;;;-0.40;70.33;101258.33;129930;1254;115068;-64
2024/01/11 10:24:04;;;;;;;51.90;23.50;;;;;;;-0.34;70.18;101244.89;130159;1259;114767;-65
2024/01/11 10:27:08;;;;;;;59.20;25.50;;;;;;;-0.32;69.74;101239.45;130000;1254;116581;-64
2024/01/11 10:30:20;;;;;;;54.50;24.80;;;;;;;-0.29;69.37;101236.33;129678;1277;115078;-64
2024/01/11 10:33:22;;;;;;;49.90;22.00;;;;;;;-0.22;69.52;101236.77;129632;1254;127905;-64
2024/01/11 10:36:25;;;;;;;48.40;22.00;;;;;;;-0.15;69.39;101237.69;129864;1255;115207;-64
2024/01/11 10:39:27;;;;;;;62.90;29.50;;;;;;;-0.10;69.04;101235.98;130247;1254;114712;-64
2024/01/11 10:42:31;;;;;;;53.80;26.60;;;;;;;-0.06;68.87;101230.06;130127;1254;114828;-64
2024/01/11 10:45:38;;;;;;;41.30;19.10;;;;;;;-0.02;68.68;101231.86;129835;1259;114785;-64
2024/01/11 10:48:43;;;;;;;40.10;18.60;;;;;;;0.06;68.62;101242.27;129758;1273;129317;-66
2024/01/11 10:51:53;;;;;;;41.60;19.90;;;;;;;0.11;68.22;101239.88;129646;1277;114777;-65
2024/01/11 10:54:56;;;;;;;43.30;20.20;;;;;;;0.19;68.05;101243.27;130399;1271;114838;-64
2024/01/11 10:57:59;;;;;;;56.20;26.10;;;;;;;0.25;67.88;101245.95;129808;1276;114732;-65
2024/01/11 11:01:04;;;;;;;53.50;24.50;;;;;;;0.31;67.57;101244.08;129930;1258;116394;-64
2024/01/11 11:04:07;;;;;;;50.00;22.00;;;;;;;0.37;67.75;101240.08;130252;1270;128996;-66
2024/01/11 11:07:09;;;;;;;49.30;23.20;;;;;;;0.41;67.49;101240.82;129845;1257;114778;-64
2024/01/11 11:10:16;;;;;;;36.90;17.50;;;;;;;0.45;67.15;101245.92;130037;1262;114835;-63
2024/01/11 11:13:19;;;;;;;39.50;18.30;;;;;;;0.40;66.26;101242.73;129982;1257;204060;-64
2024/01/11 11:16:21;;;;;;;36.20;19.40;;;;;;;0.34;66.39;101239.88;129796;1259;115350;-64
2024/01/11 11:19:24;;;;;;;44.20;20.90;;;;;;;0.35;66.28;101244.27;130019;1254;115151;-65
2024/01/11 11:22:27;;;;;;;39.40;19.30;;;;;;;0.39;66.17;101246.77;129982;1254;114795;-66
2024/01/11 11:25:30;;;;;;;39.50;17.90;;;;;;;0.43;66.22;101242.23;129996;1257;114756;-64
2024/01/11 11:28:34;;;;;;;36.00;17.80;;;;;;;0.49;66.18;101251.77;130048;1261;115113;-63
2024/01/11 11:31:38;;;;;;;38.10;17.70;;;;;;;0.54;66.00;101245.82;129781;1253;114770;-63
2024/01/11 11:34:44;;;;;;;39.40;19.60;;;;;;;0.63;66.31;101239.91;130013;1257;115398;-65
2024/01/11 11:37:46;;;;;;;40.90;17.90;;;;;;;0.73;65.99;101251.23;129938;1254;127850;-63
2024/01/11 11:40:51;;;;;;;39.30;17.90;;;;;;;0.79;65.83;101246.52;129851;1257;114735;-63
2024/01/11 11:43:53;;;;;;;35.50;18.20;;;;;;;0.82;65.35;101234.23;129846;1276;114738;-65
2024/01/11 11:46:55;;;;;;;37.40;18.90;;;;;;;0.82;65.00;101225.27;129921;1258;114704;-65
2024/01/11 11:50:13;;;;;;;34.10;16.30;;;;;;;0.85;65.02;101206.11;130077;1271;114706;-66
2024/01/11 11:53:16;;;;;;;36.20;16.90;;;;;;;0.85;64.55;101209.09;130052;1257;115341;-64
2024/01/11 11:56:20;;;;;;;33.90;16.50;;;;;;;0.91;65.21;101210.52;129907;1273;115163;-64
2024/01/11 11:59:23;;;;;;;38.50;18.90;;;;;;;0.95;65.00;101206.15;129926;1276;114896;-65
2024/01/11 12:02:27;;;;;;;37.60;18.50;;;;;;;0.97;64.36;101200.54;129785;1258;114821;-64
2024/01/11 12:05:29;;;;;;;43.10;19.10;;;;;;;0.98;64.67;101201.60;129817;1276;115388;-63
2024/01/11 12:08:32;;;;;;;40.00;19.60;;;;;;;0.98;64.05;101204.94;130042;1258;114776;-64
2024/01/11 12:11:35;;;;;;;39.00;21.40;;;;;;;0.93;64.03;101206.66;130020;1257;114805;-66
2024/01/11 12:14:37;;;;;;;37.50;20.90;;;;;;;0.95;64.36;101193.31;129551;1254;114970;-64
2024/01/11 12:17:42;;;;;;;40.50;18.60;;;;;;;0.98;64.12;101201.42;130031;1257;115078;-64
2024/01/11 12:20:45;;;;;;;44.10;20.50;;;;;;;0.98;64.04;101200.19;129980;1253;114740;-64
2024/01/11 12:23:48;;;;;;;41.10;20.50;;;;;;;0.96;63.68;101197.88;129886;1257;114845;-64
2024/01/11 12:26:51;;;;;;;40.90;21.90;;;;;;;0.88;63.32;101198.38;129878;1260;114744;-64
2024/01/11 12:29:54;;;;;;;44.10;22.00;;;;;;;0.85;63.80;101194.84;130037;1257;114741;-64
2024/01/11 12:32:57;;;;;;;44.00;19.90;;;;;;;0.88;63.86;101195.39;130102;1269;115171;-65
2024/01/11 12:35:59;;;;;;;46.30;23.50;;;;;;;0.91;64.25;101200.15;130340;1254;114800;-65
2024/01/11 12:39:03;;;;;;;43.70;20.90;;;;;;;0.93;63.95;101204.20;130327;1259;115179;-64
2024/01/11 12:42:06;;;;;;;45.10;22.20;;;;;;;0.90;64.10;101211.41;130369;1260;114714;-64
2024/01/11 12:45:09;;;;;;;40.50;18.90;;;;;;;0.82;63.30;101216.45;129979;1257;114639;-63
2024/01/11 12:48:14;;;;;;;41.90;19.90;;;;;;;0.62;63.32;101217.58;129956;1276;114782;-64
2024/01/11 12:51:18;;;;;;;44.80;19.30;;;;;;;0.52;63.63;101216.45;130046;1257;114780;-64
2024/01/11 12:54:20;;;;;;;44.50;21.30;;;;;;;0.43;63.42;101213.41;129919;1259;114725;-64
2024/01/11 12:57:22;;;;;;;41.40;23.10;;;;;;;0.35;63.52;101210.20;129937;1259;114712;-64
2024/01/11 13:00:25;;;;;;;44.00;23.30;;;;;;;0.30;63.87;101206.30;129642;1261;115641;-65
2024/01/11 13:03:27;;;;;;;44.30;21.20;;;;;;;0.28;63.68;101202.59;129841;1257;114789;-67
2024/01/11 13:06:34;;;;;;;49.60;23.60;;;;;;;0.31;63.80;101191.36;129913;1275;128839;-64
2024/01/11 13:09:36;;;;;;;61.00;24.50;;;;;;;0.38;64.22;101190.36;130273;1269;114760;-67
2024/01/11 13:12:38;;;;;;;44.80;21.30;;;;;;;0.54;64.54;101188.52;130332;1258;114692;-65
2024/01/11 13:15:40;;;;;;;45.20;19.60;;;;;;;0.70;64.40;101185.45;130258;1259;114734;-66
2024/01/11 13:18:42;;;;;;;35.40;18.10;;;;;;;0.83;64.57;101185.69;130231;1259;114783;-66
2024/01/11 13:21:44;;;;;;;39.40;18.40;;;;;;;0.90;64.75;101181.51;130217;1259;114703;-69
2024/01/11 13:24:46;;;;;;;40.40;18.70;;;;;;;0.95;64.78;101180.29;130265;1259;114715;-64
2024/01/11 13:27:48;;;;;;;44.00;18.60;;;;;;;0.94;64.61;101188.73;129717;1264;127915;-68
2024/01/11 13:30:51;;;;;;;35.70;18.30;;;;;;;0.88;64.67;101189.25;130229;1259;114712;-67